KBKW/BKW METAR and TAF weather

Enter ICAO airport designator
Station Type Date Time Source
KBKW METAR 2020/09/23 01:51 UTC NOAA

KBKW 230151Z AUTO 26004KT 10SM CLR 12/08 A3018 RMK AO2 SLP216 T01170083 TSNO


Station Type Date Time Source
KBKW Decoded METAR 2020/09/23 01:51 UTC NOAA

RALEIGH COUNTY MEM AIRPORT , WV, United States (KBKW) 37-48N 081-07W 764M
Sep 22, 2020 - 09:51 PM EDT / 2020.09.23 0151 UTC
Wind: from the W (260 degrees) at 5 MPH (4 KT):0
Visibility: 10 mile(s):0
Sky conditions: clear
Temperature: 53.1 F (11.7 C)
Dew Point: 46.9 F (8.3 C)
Relative Humidity: 79%
Pressure (altimeter): 30.18 in. Hg (1022 hPa)
ob: KBKW 230151Z AUTO 26004KT 10SM CLR 12/08 A3018 RMK AO2 SLP216 T01170083 TSNO
cycle: 2

Station Type Date Time Source
KBKW TAF 2020/09/22 18:24 UTC NOAA

TAF KBKW 221721Z 2218/2318 32004KT P6SM SKC
FM230000 00000KT P6SM SCT250

Example: see airport list